San Francisco, California
Traffic Map
Current Weather Conditions
San Francisco, California
Broken Clouds
Broken Clouds
68°
Feels Like: 68°
Wind Chill: 68° Ceiling: 2100
Heat Index: 68° Visibility: 10mi
Dew Point: 58° Wind: 20mph
Humidity: 70% Direction: 260° (W)
Pressure: 29.93in Gusts: 0mph
Raw Report DataKSFO 022356Z 26017KT 10SM FEW010 SCT015 BKN021 20/14 A2993 RMK AO2 SLP134 T02000144 10228 20194 56008
Traffic Incident Summary
Active as of:
Severity:
Category:
InformationThere was an issue retrieving the traffic information for this location. Please try a different location or try again shortly.
Advertisements
Track Severe Weather on mobile